Buckley, Washington
Current Conditions -  °F | °C
As of 10:15 AM on Sunday 25 Jan 2015 (Local Time) from KPLU Reporting Station
Moderate Fog Moderate Fog  
Wind Chill: 48°   Ceiling: 300
Heat Index: 48°   Visibility: 0.25mi
Dew Point: 48°   Wind: 0mph
Humidity: 100%   Direction: NA
Pressure: 30.17"   Gusts: NA
Location:  47.16°N, 122.03°W
Report Text: KPLU 251815Z AUTO 00000KT 1/4SM FG OVC003 09/09 A3017 RMK AO2
Loading
Personal Weather Stations






























Interactive Weather Map New forecast layout! Learn more

10-Day Weather Forecast

Advertisements
Track Severe Weather on mobile